sensor_id;sensor_type;location;lat;lon;timestamp;P1;durP1;ratioP1;P2;durP2;ratioP2
30948;SDS011;17637;51.984;21.208;2023-07-13T00:02:05;9.48;;;8.07;;
30948;SDS011;17637;51.984;21.208;2023-07-13T00:04:37;10.05;;;8.30;;
30948;SDS011;17637;51.984;21.208;2023-07-13T00:07:09;8.40;;;7.25;;
30948;SDS011;17637;51.984;21.208;2023-07-13T00:09:41;9.48;;;7.72;;
30948;SDS011;17637;51.984;21.208;2023-07-13T00:12:23;10.38;;;7.40;;
30948;SDS011;17637;51.984;21.208;2023-07-13T00:15:01;7.68;;;6.75;;
30948;SDS011;17637;51.984;21.208;2023-07-13T00:17:37;9.57;;;7.35;;
30948;SDS011;17637;51.984;21.208;2023-07-13T00:20:10;8.25;;;7.05;;
30948;SDS011;17637;51.984;21.208;2023-07-13T00:22:43;9.73;;;7.70;;
30948;SDS011;17637;51.984;21.208;2023-07-13T00:25:15;7.65;;;6.88;;
30948;SDS011;17637;51.984;21.208;2023-07-13T00:27:48;7.55;;;6.72;;
30948;SDS011;17637;51.984;21.208;2023-07-13T00:30:20;8.77;;;7.70;;
30948;SDS011;17637;51.984;21.208;2023-07-13T00:32:53;9.15;;;7.63;;
30948;SDS011;17637;51.984;21.208;2023-07-13T00:35:44;7.95;;;7.07;;
30948;SDS011;17637;51.984;21.208;2023-07-13T00:38:16;10.35;;;8.98;;
30948;SDS011;17637;51.984;21.208;2023-07-13T00:40:48;10.30;;;8.07;;
30948;SDS011;17637;51.984;21.208;2023-07-13T00:43:21;8.77;;;7.80;;
30948;SDS011;17637;51.984;21.208;2023-07-13T00:48:33;11.32;;;8.60;;
30948;SDS011;17637;51.984;21.208;2023-07-13T00:51:08;10.90;;;8.35;;
30948;SDS011;17637;51.984;21.208;2023-07-13T00:53:41;8.63;;;7.40;;
30948;SDS011;17637;51.984;21.208;2023-07-13T00:56:13;8.48;;;7.30;;
30948;SDS011;17637;51.984;21.208;2023-07-13T00:58:46;10.80;;;7.35;;
30948;SDS011;17637;51.984;21.208;2023-07-13T01:01:18;8.52;;;7.55;;
30948;SDS011;17637;51.984;21.208;2023-07-13T01:03:49;7.88;;;7.03;;
30948;SDS011;17637;51.984;21.208;2023-07-13T01:06:21;8.52;;;7.47;;
30948;SDS011;17637;51.984;21.208;2023-07-13T01:08:53;8.00;;;7.18;;
30948;SDS011;17637;51.984;21.208;2023-07-13T01:11:27;8.73;;;7.82;;
30948;SDS011;17637;51.984;21.208;2023-07-13T01:13:59;8.77;;;7.38;;
30948;SDS011;17637;51.984;21.208;2023-07-13T01:16:33;9.80;;;7.57;;
30948;SDS011;17637;51.984;21.208;2023-07-13T01:19:11;10.38;;;8.52;;
30948;SDS011;17637;51.984;21.208;2023-07-13T01:21:49;10.05;;;7.60;;
30948;SDS011;17637;51.984;21.208;2023-07-13T01:24:22;8.50;;;7.63;;
30948;SDS011;17637;51.984;21.208;2023-07-13T01:26:54;8.75;;;7.43;;
30948;SDS011;17637;51.984;21.208;2023-07-13T01:29:26;8.23;;;7.43;;
30948;SDS011;17637;51.984;21.208;2023-07-13T01:31:58;9.55;;;8.13;;
30948;SDS011;17637;51.984;21.208;2023-07-13T01:34:31;8.93;;;8.02;;
30948;SDS011;17637;51.984;21.208;2023-07-13T01:37:06;10.30;;;8.98;;
30948;SDS011;17637;51.984;21.208;2023-07-13T01:39:38;9.70;;;8.45;;
30948;SDS011;17637;51.984;21.208;2023-07-13T01:42:10;8.70;;;7.85;;
30948;SDS011;17637;51.984;21.208;2023-07-13T01:44:42;10.88;;;8.95;;
30948;SDS011;17637;51.984;21.208;2023-07-13T01:47:14;10.38;;;9.32;;
30948;SDS011;17637;51.984;21.208;2023-07-13T01:49:46;8.57;;;7.68;;
30948;SDS011;17637;51.984;21.208;2023-07-13T01:52:18;9.98;;;7.70;;
30948;SDS011;17637;51.984;21.208;2023-07-13T01:54:50;7.95;;;6.88;;
30948;SDS011;17637;51.984;21.208;2023-07-13T01:57:22;7.90;;;6.68;;
30948;SDS011;17637;51.984;21.208;2023-07-13T01:59:54;8.52;;;7.63;;
30948;SDS011;17637;51.984;21.208;2023-07-13T02:02:26;8.55;;;7.65;;
30948;SDS011;17637;51.984;21.208;2023-07-13T02:04:58;8.75;;;7.68;;
30948;SDS011;17637;51.984;21.208;2023-07-13T02:07:30;11.00;;;8.30;;
30948;SDS011;17637;51.984;21.208;2023-07-13T02:10:02;8.20;;;7.40;;
30948;SDS011;17637;51.984;21.208;2023-07-13T02:12:34;7.93;;;6.68;;
30948;SDS011;17637;51.984;21.208;2023-07-13T02:15:06;9.88;;;8.80;;
30948;SDS011;17637;51.984;21.208;2023-07-13T02:17:39;9.35;;;8.30;;
30948;SDS011;17637;51.984;21.208;2023-07-13T02:20:11;8.95;;;8.05;;
30948;SDS011;17637;51.984;21.208;2023-07-13T02:22:42;15.13;;;8.68;;
30948;SDS011;17637;51.984;21.208;2023-07-13T02:25:14;9.07;;;8.20;;
30948;SDS011;17637;51.984;21.208;2023-07-13T02:27:46;9.80;;;8.30;;
30948;SDS011;17637;51.984;21.208;2023-07-13T02:30:18;9.73;;;8.73;;
30948;SDS011;17637;51.984;21.208;2023-07-13T02:32:50;9.43;;;8.52;;
30948;SDS011;17637;51.984;21.208;2023-07-13T02:35:22;10.98;;;9.80;;
30948;SDS011;17637;51.984;21.208;2023-07-13T02:37:54;9.55;;;8.63;;
30948;SDS011;17637;51.984;21.208;2023-07-13T02:40:26;9.73;;;8.68;;
30948;SDS011;17637;51.984;21.208;2023-07-13T02:42:58;12.35;;;9.70;;
30948;SDS011;17637;51.984;21.208;2023-07-13T02:45:30;11.50;;;10.07;;
30948;SDS011;17637;51.984;21.208;2023-07-13T02:48:02;9.77;;;8.50;;
30948;SDS011;17637;51.984;21.208;2023-07-13T02:50:34;10.27;;;8.95;;
30948;SDS011;17637;51.984;21.208;2023-07-13T02:53:06;8.98;;;8.07;;
30948;SDS011;17637;51.984;21.208;2023-07-13T02:55:37;10.68;;;9.02;;
30948;SDS011;17637;51.984;21.208;2023-07-13T02:58:11;11.57;;;9.25;;
30948;SDS011;17637;51.984;21.208;2023-07-13T03:00:43;10.98;;;9.82;;
30948;SDS011;17637;51.984;21.208;2023-07-13T03:03:18;12.10;;;10.93;;
30948;SDS011;17637;51.984;21.208;2023-07-13T03:05:57;10.63;;;9.63;;
30948;SDS011;17637;51.984;21.208;2023-07-13T03:11:05;9.02;;;8.18;;
30948;SDS011;17637;51.984;21.208;2023-07-13T03:13:39;8.90;;;8.00;;
30948;SDS011;17637;51.984;21.208;2023-07-13T03:16:12;9.95;;;9.02;;
30948;SDS011;17637;51.984;21.208;2023-07-13T03:18:49;9.90;;;8.95;;
30948;SDS011;17637;51.984;21.208;2023-07-13T03:21:21;12.38;;;8.23;;
30948;SDS011;17637;51.984;21.208;2023-07-13T03:23:53;11.02;;;9.02;;
30948;SDS011;17637;51.984;21.208;2023-07-13T03:26:25;12.70;;;11.27;;
30948;SDS011;17637;51.984;21.208;2023-07-13T03:28:57;10.57;;;9.57;;
30948;SDS011;17637;51.984;21.208;2023-07-13T03:31:29;11.18;;;9.98;;
30948;SDS011;17637;51.984;21.208;2023-07-13T03:34:05;11.02;;;9.25;;
30948;SDS011;17637;51.984;21.208;2023-07-13T03:36:37;10.43;;;8.80;;
30948;SDS011;17637;51.984;21.208;2023-07-13T03:39:09;9.65;;;8.70;;
30948;SDS011;17637;51.984;21.208;2023-07-13T03:41:41;10.35;;;8.65;;
30948;SDS011;17637;51.984;21.208;2023-07-13T03:44:13;11.18;;;9.30;;
30948;SDS011;17637;51.984;21.208;2023-07-13T03:46:45;9.82;;;8.88;;
30948;SDS011;17637;51.984;21.208;2023-07-13T03:49:16;11.55;;;9.65;;
30948;SDS011;17637;51.984;21.208;2023-07-13T03:51:48;9.65;;;8.65;;
30948;SDS011;17637;51.984;21.208;2023-07-13T03:54:24;10.02;;;8.93;;
30948;SDS011;17637;51.984;21.208;2023-07-13T03:56:56;9.77;;;8.82;;
30948;SDS011;17637;51.984;21.208;2023-07-13T03:59:28;12.38;;;9.43;;
30948;SDS011;17637;51.984;21.208;2023-07-13T04:02:00;13.10;;;11.68;;
30948;SDS011;17637;51.984;21.208;2023-07-13T04:04:32;11.65;;;9.65;;
30948;SDS011;17637;51.984;21.208;2023-07-13T04:07:04;13.40;;;12.00;;
30948;SDS011;17637;51.984;21.208;2023-07-13T04:09:36;16.13;;;11.35;;
30948;SDS011;17637;51.984;21.208;2023-07-13T04:12:08;14.95;;;12.10;;
30948;SDS011;17637;51.984;21.208;2023-07-13T04:14:40;14.27;;;11.68;;
30948;SDS011;17637;51.984;21.208;2023-07-13T04:17:11;13.35;;;11.18;;
30948;SDS011;17637;51.984;21.208;2023-07-13T04:19:43;15.60;;;12.57;;
30948;SDS011;17637;51.984;21.208;2023-07-13T04:22:15;13.98;;;11.23;;
30948;SDS011;17637;51.984;21.208;2023-07-13T04:24:47;15.25;;;13.73;;
30948;SDS011;17637;51.984;21.208;2023-07-13T04:27:19;15.35;;;13.77;;
30948;SDS011;17637;51.984;21.208;2023-07-13T04:29:53;15.18;;;13.13;;
30948;SDS011;17637;51.984;21.208;2023-07-13T04:32:25;16.35;;;14.02;;
30948;SDS011;17637;51.984;21.208;2023-07-13T04:34:57;14.05;;;12.30;;
30948;SDS011;17637;51.984;21.208;2023-07-13T04:37:30;14.00;;;11.95;;
30948;SDS011;17637;51.984;21.208;2023-07-13T04:40:03;15.18;;;12.55;;
30948;SDS011;17637;51.984;21.208;2023-07-13T04:42:35;15.05;;;11.88;;
30948;SDS011;17637;51.984;21.208;2023-07-13T04:45:07;15.68;;;13.05;;
30948;SDS011;17637;51.984;21.208;2023-07-13T04:47:39;14.13;;;12.65;;
30948;SDS011;17637;51.984;21.208;2023-07-13T04:50:12;14.38;;;12.88;;
30948;SDS011;17637;51.984;21.208;2023-07-13T04:52:52;16.88;;;13.07;;
30948;SDS011;17637;51.984;21.208;2023-07-13T04:55:24;14.90;;;11.25;;
30948;SDS011;17637;51.984;21.208;2023-07-13T04:57:56;14.65;;;11.73;;
30948;SDS011;17637;51.984;21.208;2023-07-13T05:00:30;12.25;;;11.05;;
30948;SDS011;17637;51.984;21.208;2023-07-13T05:03:02;13.45;;;11.88;;
30948;SDS011;17637;51.984;21.208;2023-07-13T05:05:34;13.90;;;11.05;;
30948;SDS011;17637;51.984;21.208;2023-07-13T05:08:06;15.43;;;11.35;;
30948;SDS011;17637;51.984;21.208;2023-07-13T05:10:38;17.50;;;12.07;;
30948;SDS011;17637;51.984;21.208;2023-07-13T05:13:10;14.43;;;11.05;;
30948;SDS011;17637;51.984;21.208;2023-07-13T05:15:42;18.65;;;11.70;;
30948;SDS011;17637;51.984;21.208;2023-07-13T05:18:14;14.82;;;11.13;;
30948;SDS011;17637;51.984;21.208;2023-07-13T05:20:46;17.25;;;13.95;;
30948;SDS011;17637;51.984;21.208;2023-07-13T05:23:18;12.63;;;10.98;;
30948;SDS011;17637;51.984;21.208;2023-07-13T05:25:49;13.63;;;11.65;;
30948;SDS011;17637;51.984;21.208;2023-07-13T05:28:21;13.60;;;10.43;;
30948;SDS011;17637;51.984;21.208;2023-07-13T05:30:53;16.92;;;13.38;;
30948;SDS011;17637;51.984;21.208;2023-07-13T05:33:26;15.23;;;12.23;;
30948;SDS011;17637;51.984;21.208;2023-07-13T05:35:58;15.98;;;12.05;;
30948;SDS011;17637;51.984;21.208;2023-07-13T05:38:32;12.93;;;10.68;;
30948;SDS011;17637;51.984;21.208;2023-07-13T05:41:04;19.25;;;13.43;;
30948;SDS011;17637;51.984;21.208;2023-07-13T05:43:36;17.38;;;13.18;;
30948;SDS011;17637;51.984;21.208;2023-07-13T05:46:08;15.65;;;13.32;;
30948;SDS011;17637;51.984;21.208;2023-07-13T05:48:40;17.23;;;13.70;;
30948;SDS011;17637;51.984;21.208;2023-07-13T05:51:12;20.08;;;11.63;;
30948;SDS011;17637;51.984;21.208;2023-07-13T05:53:44;14.93;;;12.93;;
30948;SDS011;17637;51.984;21.208;2023-07-13T05:56:16;15.38;;;13.23;;
30948;SDS011;17637;51.984;21.208;2023-07-13T05:58:48;15.68;;;13.55;;
30948;SDS011;17637;51.984;21.208;2023-07-13T06:01:20;17.13;;;13.95;;
30948;SDS011;17637;51.984;21.208;2023-07-13T06:03:54;19.42;;;14.35;;
30948;SDS011;17637;51.984;21.208;2023-07-13T06:06:25;15.25;;;13.50;;
30948;SDS011;17637;51.984;21.208;2023-07-13T06:08:57;18.27;;;12.95;;
30948;SDS011;17637;51.984;21.208;2023-07-13T06:11:29;21.13;;;15.00;;
30948;SDS011;17637;51.984;21.208;2023-07-13T06:14:01;17.75;;;14.55;;
30948;SDS011;17637;51.984;21.208;2023-07-13T06:16:33;18.60;;;13.30;;
30948;SDS011;17637;51.984;21.208;2023-07-13T06:19:05;17.75;;;14.13;;
30948;SDS011;17637;51.984;21.208;2023-07-13T06:21:37;13.30;;;11.95;;
30948;SDS011;17637;51.984;21.208;2023-07-13T06:24:09;18.85;;;14.13;;
30948;SDS011;17637;51.984;21.208;2023-07-13T06:26:41;18.80;;;13.77;;
30948;SDS011;17637;51.984;21.208;2023-07-13T06:29:13;16.63;;;13.70;;
30948;SDS011;17637;51.984;21.208;2023-07-13T06:31:45;13.88;;;12.05;;
30948;SDS011;17637;51.984;21.208;2023-07-13T06:34:17;15.43;;;12.98;;
30948;SDS011;17637;51.984;21.208;2023-07-13T06:36:49;17.75;;;12.90;;
30948;SDS011;17637;51.984;21.208;2023-07-13T06:39:21;18.83;;;12.55;;
30948;SDS011;17637;51.984;21.208;2023-07-13T06:41:53;16.30;;;13.55;;
30948;SDS011;17637;51.984;21.208;2023-07-13T06:44:24;19.52;;;13.73;;
30948;SDS011;17637;51.984;21.208;2023-07-13T06:46:56;17.48;;;13.23;;
30948;SDS011;17637;51.984;21.208;2023-07-13T06:49:28;14.63;;;11.38;;
30948;SDS011;17637;51.984;21.208;2023-07-13T06:52:00;15.50;;;11.75;;
30948;SDS011;17637;51.984;21.208;2023-07-13T06:54:32;16.50;;;12.77;;
30948;SDS011;17637;51.984;21.208;2023-07-13T06:57:04;13.13;;;10.77;;
30948;SDS011;17637;51.984;21.208;2023-07-13T06:59:36;12.90;;;11.57;;
30948;SDS011;17637;51.984;21.208;2023-07-13T07:02:09;14.75;;;12.55;;
30948;SDS011;17637;51.984;21.208;2023-07-13T07:04:41;13.45;;;11.77;;
30948;SDS011;17637;51.984;21.208;2023-07-13T07:07:13;11.02;;;9.85;;
30948;SDS011;17637;51.984;21.208;2023-07-13T07:09:45;11.57;;;10.38;;
30948;SDS011;17637;51.984;21.208;2023-07-13T07:12:17;13.38;;;10.55;;
30948;SDS011;17637;51.984;21.208;2023-07-13T07:14:49;12.57;;;9.57;;
30948;SDS011;17637;51.984;21.208;2023-07-13T07:17:21;12.02;;;9.95;;
30948;SDS011;17637;51.984;21.208;2023-07-13T07:19:55;10.60;;;8.93;;
30948;SDS011;17637;51.984;21.208;2023-07-13T07:22:27;11.85;;;10.05;;
30948;SDS011;17637;51.984;21.208;2023-07-13T07:24:59;12.02;;;9.82;;
30948;SDS011;17637;51.984;21.208;2023-07-13T07:27:31;14.52;;;10.57;;
30948;SDS011;17637;51.984;21.208;2023-07-13T07:30:06;10.95;;;9.85;;
30948;SDS011;17637;51.984;21.208;2023-07-13T07:32:41;10.23;;;8.43;;
30948;SDS011;17637;51.984;21.208;2023-07-13T07:35:27;10.50;;;9.38;;
30948;SDS011;17637;51.984;21.208;2023-07-13T07:38:03;11.70;;;10.18;;
30948;SDS011;17637;51.984;21.208;2023-07-13T07:40:39;10.43;;;8.60;;
30948;SDS011;17637;51.984;21.208;2023-07-13T07:43:15;9.18;;;8.27;;
30948;SDS011;17637;51.984;21.208;2023-07-13T07:45:46;14.27;;;7.60;;
30948;SDS011;17637;51.984;21.208;2023-07-13T07:48:18;11.60;;;8.57;;
30948;SDS011;17637;51.984;21.208;2023-07-13T07:50:50;10.40;;;8.95;;
30948;SDS011;17637;51.984;21.208;2023-07-13T07:53:22;11.85;;;8.00;;
30948;SDS011;17637;51.984;21.208;2023-07-13T07:55:54;8.55;;;7.75;;
30948;SDS011;17637;51.984;21.208;2023-07-13T07:58:29;8.43;;;7.53;;
30948;SDS011;17637;51.984;21.208;2023-07-13T08:01:04;8.45;;;7.38;;
30948;SDS011;17637;51.984;21.208;2023-07-13T08:03:40;10.38;;;9.10;;
30948;SDS011;17637;51.984;21.208;2023-07-13T08:06:14;8.98;;;7.90;;
30948;SDS011;17637;51.984;21.208;2023-07-13T08:09:07;8.60;;;7.80;;
30948;SDS011;17637;51.984;21.208;2023-07-13T08:11:40;9.02;;;8.13;;
30948;SDS011;17637;51.984;21.208;2023-07-13T08:14:14;7.47;;;6.78;;
30948;SDS011;17637;51.984;21.208;2023-07-13T08:16:47;11.65;;;7.45;;
30948;SDS011;17637;51.984;21.208;2023-07-13T08:19:19;9.15;;;8.05;;
30948;SDS011;17637;51.984;21.208;2023-07-13T08:21:51;7.80;;;7.07;;
30948;SDS011;17637;51.984;21.208;2023-07-13T08:24:23;7.65;;;6.80;;
30948;SDS011;17637;51.984;21.208;2023-07-13T08:26:55;8.38;;;6.60;;
30948;SDS011;17637;51.984;21.208;2023-07-13T08:29:27;9.07;;;8.02;;
30948;SDS011;17637;51.984;21.208;2023-07-13T08:31:59;8.13;;;7.32;;
30948;SDS011;17637;51.984;21.208;2023-07-13T08:34:31;8.18;;;7.35;;
30948;SDS011;17637;51.984;21.208;2023-07-13T08:37:03;8.73;;;7.50;;
30948;SDS011;17637;51.984;21.208;2023-07-13T08:39:35;10.43;;;7.55;;
30948;SDS011;17637;51.984;21.208;2023-07-13T08:47:21;8.52;;;7.32;;
30948;SDS011;17637;51.984;21.208;2023-07-13T08:49:55;12.05;;;7.45;;
30948;SDS011;17637;51.984;21.208;2023-07-13T08:52:35;11.75;;;7.22;;
30948;SDS011;17637;51.984;21.208;2023-07-13T08:55:24;11.40;;;8.10;;
30948;SDS011;17637;51.984;21.208;2023-07-13T08:58:13;10.35;;;7.63;;
30948;SDS011;17637;51.984;21.208;2023-07-13T09:03:34;9.10;;;7.60;;
30948;SDS011;17637;51.984;21.208;2023-07-13T09:06:12;8.98;;;7.70;;
30948;SDS011;17637;51.984;21.208;2023-07-13T09:08:48;12.70;;;8.07;;
30948;SDS011;17637;51.984;21.208;2023-07-13T09:11:41;13.88;;;8.05;;
30948;SDS011;17637;51.984;21.208;2023-07-13T09:14:39;8.70;;;7.63;;
30948;SDS011;17637;51.984;21.208;2023-07-13T09:17:18;11.15;;;7.38;;
30948;SDS011;17637;51.984;21.208;2023-07-13T09:19:59;13.50;;;7.80;;
30948;SDS011;17637;51.984;21.208;2023-07-13T09:22:35;10.38;;;8.52;;
30948;SDS011;17637;51.984;21.208;2023-07-13T09:28:14;8.85;;;7.95;;
30948;SDS011;17637;51.984;21.208;2023-07-13T09:30:55;9.68;;;7.93;;
30948;SDS011;17637;51.984;21.208;2023-07-13T09:33:39;8.43;;;7.23;;
30948;SDS011;17637;51.984;21.208;2023-07-13T09:36:21;8.00;;;7.28;;
30948;SDS011;17637;51.984;21.208;2023-07-13T09:44:54;10.05;;;9.05;;
30948;SDS011;17637;51.984;21.208;2023-07-13T09:47:28;8.70;;;7.85;;
30948;SDS011;17637;51.984;21.208;2023-07-13T09:50:03;9.75;;;8.77;;
30948;SDS011;17637;51.984;21.208;2023-07-13T09:52:42;8.93;;;8.00;;
30948;SDS011;17637;51.984;21.208;2023-07-13T09:55:34;9.68;;;7.95;;
30948;SDS011;17637;51.984;21.208;2023-07-13T09:58:15;9.10;;;7.30;;
30948;SDS011;17637;51.984;21.208;2023-07-13T10:00:56;12.18;;;8.00;;
30948;SDS011;17637;51.984;21.208;2023-07-13T10:03:40;8.52;;;7.60;;
30948;SDS011;17637;51.984;21.208;2023-07-13T10:06:24;9.45;;;8.48;;
30948;SDS011;17637;51.984;21.208;2023-07-13T10:08:57;9.32;;;8.20;;
30948;SDS011;17637;51.984;21.208;2023-07-13T10:11:30;9.57;;;8.57;;
30948;SDS011;17637;51.984;21.208;2023-07-13T10:14:02;11.35;;;9.27;;
30948;SDS011;17637;51.984;21.208;2023-07-13T10:16:42;11.97;;;8.53;;
30948;SDS011;17637;51.984;21.208;2023-07-13T10:19:22;9.40;;;8.23;;
30948;SDS011;17637;51.984;21.208;2023-07-13T10:21:59;9.98;;;8.07;;
30948;SDS011;17637;51.984;21.208;2023-07-13T10:24:33;8.63;;;7.70;;
30948;SDS011;17637;51.984;21.208;2023-07-13T10:27:10;11.13;;;7.13;;
30948;SDS011;17637;51.984;21.208;2023-07-13T10:29:48;8.75;;;7.70;;
30948;SDS011;17637;51.984;21.208;2023-07-13T10:32:25;8.55;;;7.65;;
30948;SDS011;17637;51.984;21.208;2023-07-13T10:34:58;7.95;;;7.13;;
30948;SDS011;17637;51.984;21.208;2023-07-13T10:37:37;8.65;;;7.65;;
30948;SDS011;17637;51.984;21.208;2023-07-13T10:40:43;7.63;;;6.75;;
30948;SDS011;17637;51.984;21.208;2023-07-13T10:43:27;8.52;;;7.32;;
30948;SDS011;17637;51.984;21.208;2023-07-13T10:46:05;8.52;;;7.68;;
30948;SDS011;17637;51.984;21.208;2023-07-13T10:48:39;9.73;;;7.63;;
30948;SDS011;17637;51.984;21.208;2023-07-13T10:51:14;9.48;;;7.97;;
30948;SDS011;17637;51.984;21.208;2023-07-13T10:54:10;9.57;;;7.38;;
30948;SDS011;17637;51.984;21.208;2023-07-13T10:56:51;9.45;;;7.88;;
30948;SDS011;17637;51.984;21.208;2023-07-13T10:59:39;7.78;;;6.57;;
30948;SDS011;17637;51.984;21.208;2023-07-13T11:02:26;8.70;;;7.75;;
30948;SDS011;17637;51.984;21.208;2023-07-13T11:04:59;10.55;;;8.48;;
30948;SDS011;17637;51.984;21.208;2023-07-13T11:07:55;14.85;;;10.63;;
30948;SDS011;17637;51.984;21.208;2023-07-13T11:10:49;17.17;;;11.57;;
30948;SDS011;17637;51.984;21.208;2023-07-13T11:13:36;14.32;;;10.95;;
30948;SDS011;17637;51.984;21.208;2023-07-13T11:18:53;14.82;;;9.93;;
30948;SDS011;17637;51.984;21.208;2023-07-13T11:24:57;11.32;;;6.68;;
30948;SDS011;17637;51.984;21.208;2023-07-13T11:27:38;9.43;;;5.88;;
30948;SDS011;17637;51.984;21.208;2023-07-13T11:33:02;9.63;;;6.30;;
30948;SDS011;17637;51.984;21.208;2023-07-13T11:38:22;10.38;;;5.57;;
30948;SDS011;17637;51.984;21.208;2023-07-13T11:41:01;10.93;;;6.47;;
30948;SDS011;17637;51.984;21.208;2023-07-13T11:43:35;14.82;;;5.70;;
30948;SDS011;17637;51.984;21.208;2023-07-13T11:48:47;12.18;;;7.00;;
30948;SDS011;17637;51.984;21.208;2023-07-13T11:51:22;13.25;;;6.93;;
30948;SDS011;17637;51.984;21.208;2023-07-13T11:53:59;9.07;;;6.63;;
30948;SDS011;17637;51.984;21.208;2023-07-13T11:56:34;13.68;;;6.70;;
30948;SDS011;17637;51.984;21.208;2023-07-13T11:59:10;11.88;;;8.18;;
30948;SDS011;17637;51.984;21.208;2023-07-13T12:01:45;9.05;;;6.78;;
30948;SDS011;17637;51.984;21.208;2023-07-13T12:04:26;12.27;;;7.18;;
30948;SDS011;17637;51.984;21.208;2023-07-13T12:07:04;12.77;;;8.52;;
30948;SDS011;17637;51.984;21.208;2023-07-13T12:09:46;13.00;;;7.70;;
30948;SDS011;17637;51.984;21.208;2023-07-13T12:12:19;13.15;;;8.15;;
30948;SDS011;17637;51.984;21.208;2023-07-13T12:14:53;11.90;;;8.40;;
30948;SDS011;17637;51.984;21.208;2023-07-13T12:17:26;9.52;;;7.65;;
30948;SDS011;17637;51.984;21.208;2023-07-13T12:19:58;11.73;;;7.93;;
30948;SDS011;17637;51.984;21.208;2023-07-13T12:22:30;10.48;;;7.07;;
30948;SDS011;17637;51.984;21.208;2023-07-13T12:25:02;10.95;;;7.65;;
30948;SDS011;17637;51.984;21.208;2023-07-13T12:27:36;13.15;;;7.50;;
30948;SDS011;17637;51.984;21.208;2023-07-13T12:30:23;11.85;;;7.68;;
30948;SDS011;17637;51.984;21.208;2023-07-13T12:33:02;8.85;;;7.03;;
30948;SDS011;17637;51.984;21.208;2023-07-13T12:35:41;8.77;;;6.93;;
30948;SDS011;17637;51.984;21.208;2023-07-13T12:38:18;10.13;;;6.55;;
30948;SDS011;17637;51.984;21.208;2023-07-13T12:40:53;8.48;;;6.75;;
30948;SDS011;17637;51.984;21.208;2023-07-13T12:43:25;12.95;;;6.93;;
30948;SDS011;17637;51.984;21.208;2023-07-13T12:46:01;9.93;;;7.10;;
30948;SDS011;17637;51.984;21.208;2023-07-13T12:48:38;8.98;;;6.72;;
30948;SDS011;17637;51.984;21.208;2023-07-13T12:51:24;7.07;;;6.43;;
30948;SDS011;17637;51.984;21.208;2023-07-13T12:54:05;8.07;;;6.13;;
30948;SDS011;17637;51.984;21.208;2023-07-13T12:56:45;9.00;;;8.10;;
30948;SDS011;17637;51.984;21.208;2023-07-13T12:59:24;10.20;;;8.40;;
30948;SDS011;17637;51.984;21.208;2023-07-13T13:01:59;10.30;;;7.50;;
30948;SDS011;17637;51.984;21.208;2023-07-13T13:04:32;9.35;;;8.45;;
30948;SDS011;17637;51.984;21.208;2023-07-13T13:07:07;8.15;;;7.38;;
30948;SDS011;17637;51.984;21.208;2023-07-13T13:09:41;8.07;;;6.88;;
30948;SDS011;17637;51.984;21.208;2023-07-13T13:12:12;7.20;;;6.53;;
30948;SDS011;17637;51.984;21.208;2023-07-13T13:14:45;9.15;;;7.47;;
30948;SDS011;17637;51.984;21.208;2023-07-13T13:17:26;8.82;;;6.53;;
30948;SDS011;17637;51.984;21.208;2023-07-13T13:20:04;11.10;;;9.88;;
30948;SDS011;17637;51.984;21.208;2023-07-13T13:22:45;12.82;;;7.97;;
30948;SDS011;17637;51.984;21.208;2023-07-13T13:25:17;9.68;;;8.07;;
30948;SDS011;17637;51.984;21.208;2023-07-13T13:27:49;8.85;;;7.95;;
30948;SDS011;17637;51.984;21.208;2023-07-13T13:30:21;11.88;;;9.38;;
30948;SDS011;17637;51.984;21.208;2023-07-13T13:32:53;11.68;;;10.57;;
30948;SDS011;17637;51.984;21.208;2023-07-13T13:35:25;12.63;;;8.85;;
30948;SDS011;17637;51.984;21.208;2023-07-13T13:37:58;8.73;;;7.40;;
30948;SDS011;17637;51.984;21.208;2023-07-13T13:40:30;8.20;;;6.10;;
30948;SDS011;17637;51.984;21.208;2023-07-13T13:43:02;8.40;;;6.97;;
30948;SDS011;17637;51.984;21.208;2023-07-13T13:45:36;16.20;;;9.40;;
30948;SDS011;17637;51.984;21.208;2023-07-13T13:48:13;8.60;;;7.57;;
30948;SDS011;17637;51.984;21.208;2023-07-13T13:50:47;8.32;;;7.50;;
30948;SDS011;17637;51.984;21.208;2023-07-13T13:53:20;11.68;;;8.18;;
30948;SDS011;17637;51.984;21.208;2023-07-13T13:55:52;7.45;;;6.72;;
30948;SDS011;17637;51.984;21.208;2023-07-13T13:58:24;8.52;;;7.15;;
30948;SDS011;17637;51.984;21.208;2023-07-13T14:00:56;9.75;;;7.60;;
30948;SDS011;17637;51.984;21.208;2023-07-13T14:03:27;10.23;;;8.25;;
30948;SDS011;17637;51.984;21.208;2023-07-13T14:05:59;10.10;;;7.82;;
30948;SDS011;17637;51.984;21.208;2023-07-13T14:08:31;8.70;;;7.47;;
30948;SDS011;17637;51.984;21.208;2023-07-13T14:11:03;8.73;;;6.65;;
30948;SDS011;17637;51.984;21.208;2023-07-13T14:13:36;8.05;;;7.20;;
30948;SDS011;17637;51.984;21.208;2023-07-13T14:16:17;7.20;;;6.50;;
30948;SDS011;17637;51.984;21.208;2023-07-13T14:18:51;8.15;;;6.75;;
30948;SDS011;17637;51.984;21.208;2023-07-13T14:21:22;9.32;;;7.57;;
30948;SDS011;17637;51.984;21.208;2023-07-13T14:23:54;6.13;;;5.53;;
30948;SDS011;17637;51.984;21.208;2023-07-13T14:26:26;6.50;;;5.80;;
30948;SDS011;17637;51.984;21.208;2023-07-13T14:28:59;7.45;;;6.20;;
30948;SDS011;17637;51.984;21.208;2023-07-13T14:31:30;6.65;;;5.88;;
30948;SDS011;17637;51.984;21.208;2023-07-13T14:34:02;8.35;;;6.82;;
30948;SDS011;17637;51.984;21.208;2023-07-13T14:36:39;7.60;;;6.70;;
30948;SDS011;17637;51.984;21.208;2023-07-13T14:39:14;8.57;;;7.70;;
30948;SDS011;17637;51.984;21.208;2023-07-13T14:41:51;7.53;;;6.85;;
30948;SDS011;17637;51.984;21.208;2023-07-13T14:44:26;8.77;;;7.43;;
30948;SDS011;17637;51.984;21.208;2023-07-13T14:47:02;8.38;;;7.68;;
30948;SDS011;17637;51.984;21.208;2023-07-13T14:49:40;9.73;;;7.30;;
30948;SDS011;17637;51.984;21.208;2023-07-13T14:52:21;8.23;;;7.43;;
30948;SDS011;17637;51.984;21.208;2023-07-13T14:54:58;9.02;;;8.23;;
30948;SDS011;17637;51.984;21.208;2023-07-13T14:57:30;11.48;;;10.35;;
30948;SDS011;17637;51.984;21.208;2023-07-13T15:00:01;12.40;;;11.30;;
30948;SDS011;17637;51.984;21.208;2023-07-13T15:02:34;9.32;;;8.43;;
30948;SDS011;17637;51.984;21.208;2023-07-13T15:05:13;7.50;;;6.90;;
30948;SDS011;17637;51.984;21.208;2023-07-13T15:07:45;10.68;;;9.23;;
30948;SDS011;17637;51.984;21.208;2023-07-13T15:10:19;9.75;;;8.93;;
30948;SDS011;17637;51.984;21.208;2023-07-13T15:13:00;6.53;;;5.85;;
30948;SDS011;17637;51.984;21.208;2023-07-13T15:15:45;6.75;;;6.15;;
30948;SDS011;17637;51.984;21.208;2023-07-13T15:18:23;5.53;;;5.03;;
30948;SDS011;17637;51.984;21.208;2023-07-13T15:20:57;6.03;;;5.43;;
30948;SDS011;17637;51.984;21.208;2023-07-13T15:23:31;6.07;;;5.47;;
30948;SDS011;17637;51.984;21.208;2023-07-13T15:26:03;5.70;;;5.20;;
30948;SDS011;17637;51.984;21.208;2023-07-13T15:28:35;6.07;;;5.35;;
30948;SDS011;17637;51.984;21.208;2023-07-13T15:33:56;6.60;;;6.00;;
30948;SDS011;17637;51.984;21.208;2023-07-13T15:36:29;6.88;;;6.18;;
30948;SDS011;17637;51.984;21.208;2023-07-13T15:39:04;6.70;;;5.90;;
30948;SDS011;17637;51.984;21.208;2023-07-13T15:41:37;7.88;;;7.18;;
30948;SDS011;17637;51.984;21.208;2023-07-13T15:44:20;8.55;;;7.72;;
30948;SDS011;17637;51.984;21.208;2023-07-13T15:47:00;9.07;;;7.53;;